createdAt,value
2023-05-05T00:01:21.250Z,8.18
2023-05-05T00:03:24.130Z,10.07
2023-05-05T00:05:25.664Z,8.35
2023-05-05T00:07:27.152Z,10.50
2023-05-05T00:09:30.291Z,8.77
2023-05-05T00:11:31.785Z,11.25
2023-05-05T00:13:33.300Z,7.85
2023-05-05T00:15:34.790Z,9.68
2023-05-05T00:17:36.354Z,9.60
2023-05-05T00:19:37.871Z,9.18
2023-05-05T00:21:39.429Z,9.13
2023-05-05T00:23:40.937Z,8.95
2023-05-05T00:25:44.107Z,11.32
2023-05-05T00:27:45.582Z,8.52
2023-05-05T00:29:47.251Z,9.35
2023-05-05T00:31:50.698Z,8.50
2023-05-05T00:33:52.216Z,11.43
2023-05-05T00:35:53.755Z,10.52
2023-05-05T00:37:55.305Z,9.35
2023-05-05T00:39:56.895Z,8.13
2023-05-05T00:41:59.720Z,8.52
2023-05-05T00:44:01.195Z,8.88
2023-05-05T00:46:11.743Z,10.40
2023-05-05T00:48:13.891Z,8.75
2023-05-05T00:50:21.722Z,10.85
2023-05-05T00:52:23.783Z,9.45
2023-05-05T00:54:25.426Z,10.27
2023-05-05T00:56:27.230Z,12.73
2023-05-05T00:58:30.469Z,8.52
2023-05-05T01:00:32.187Z,10.90
2023-05-05T01:02:33.703Z,9.43
2023-05-05T01:04:35.322Z,9.93
2023-05-05T01:06:45.172Z,9.82
2023-05-05T01:09:01.569Z,9.63
2023-05-05T01:11:12.067Z,9.05
2023-05-05T01:13:27.788Z,12.10
2023-05-05T01:15:34.680Z,12.55
2023-05-05T01:17:41.092Z,10.75
2023-05-05T01:20:02.581Z,9.55
2023-05-05T01:22:08.828Z,11.63
2023-05-05T01:24:38.770Z,11.07
2023-05-05T01:26:59.472Z,9.60
2023-05-05T01:29:16.949Z,8.75
2023-05-05T01:31:47.971Z,8.57
2023-05-05T01:33:58.086Z,9.35
2023-05-05T01:36:07.204Z,10.88
2023-05-05T01:38:16.030Z,9.70
2023-05-05T01:40:21.341Z,8.57
2023-05-05T01:42:25.721Z,8.70
2023-05-05T01:44:28.737Z,9.05
2023-05-05T01:46:30.402Z,9.93
2023-05-05T01:48:33.666Z,12.15
2023-05-05T01:50:36.562Z,8.63
2023-05-05T01:52:39.903Z,9.38
2023-05-05T01:54:43.790Z,9.93
2023-05-05T01:56:49.055Z,7.65
2023-05-05T01:58:52.832Z,12.70
2023-05-05T02:00:56.560Z,10.68
2023-05-05T02:02:59.327Z,8.05
2023-05-05T02:05:03.376Z,8.50
2023-05-05T02:07:06.605Z,8.93
2023-05-05T02:09:11.755Z,11.90
2023-05-05T02:11:14.650Z,9.70
2023-05-05T02:13:17.888Z,8.85
2023-05-05T02:15:21.987Z,8.05
2023-05-05T02:17:24.974Z,8.55
2023-05-05T02:19:30.036Z,9.27
2023-05-05T02:21:33.790Z,9.38
2023-05-05T02:23:35.447Z,10.43
2023-05-05T02:25:40.292Z,10.65
2023-05-05T02:27:43.641Z,8.85
2023-05-05T02:29:48.158Z,10.00
2023-05-05T02:31:53.133Z,8.50
2023-05-05T02:33:57.408Z,9.68
2023-05-05T02:36:08.307Z,8.98
2023-05-05T02:38:14.925Z,12.95
2023-05-05T02:40:19.826Z,8.02
2023-05-05T02:42:22.790Z,9.45
2023-05-05T02:44:25.911Z,8.98
2023-05-05T02:46:27.933Z,8.90
2023-05-05T02:48:29.439Z,8.55
2023-05-05T02:50:31.500Z,10.15
2023-05-05T02:52:33.694Z,8.85
2023-05-05T02:54:37.087Z,10.93
2023-05-05T02:56:41.327Z,10.13
2023-05-05T02:58:54.581Z,12.70
2023-05-05T03:01:07.897Z,9.27
2023-05-05T03:03:18.019Z,9.65
2023-05-05T03:05:23.217Z,7.78
2023-05-05T03:07:27.717Z,9.90
2023-05-05T03:09:35.908Z,10.23
2023-05-05T03:11:43.634Z,9.65
2023-05-05T03:13:50.603Z,9.10
2023-05-05T03:15:54.488Z,7.70
2023-05-05T03:17:58.185Z,9.88
2023-05-05T03:22:05.095Z,8.75
2023-05-05T03:24:15.100Z,9.82
2023-05-05T03:26:17.256Z,9.50
2023-05-05T03:28:20.075Z,8.73
2023-05-05T03:30:21.550Z,10.45
2023-05-05T03:32:24.549Z,9.70
2023-05-05T03:34:26.153Z,10.20
2023-05-05T03:36:29.368Z,9.93
2023-05-05T03:38:31.043Z,8.30
2023-05-05T03:40:42.998Z,10.63
2023-05-05T03:42:45.914Z,8.50
2023-05-05T03:44:48.738Z,10.82
2023-05-05T03:46:50.206Z,9.38
2023-05-05T03:48:51.768Z,6.57
2023-05-05T03:50:53.922Z,8.57
2023-05-05T03:52:55.448Z,7.88
2023-05-05T03:54:57.134Z,7.95
2023-05-05T03:56:58.626Z,7.95
2023-05-05T03:59:00.233Z,7.88
2023-05-05T04:01:03.179Z,8.65
2023-05-05T04:03:04.911Z,10.98
2023-05-05T04:05:06.879Z,9.27
2023-05-05T04:07:08.365Z,8.43
2023-05-05T04:09:09.892Z,10.35
2023-05-05T04:11:11.400Z,10.30
2023-05-05T04:13:12.981Z,9.27
2023-05-05T04:15:14.792Z,10.52
2023-05-05T04:17:17.770Z,7.80
2023-05-05T04:19:19.303Z,7.50
2023-05-05T04:21:20.788Z,12.05
2023-05-05T04:23:22.503Z,8.40
2023-05-05T04:25:24.060Z,7.75
2023-05-05T04:27:25.698Z,9.07
2023-05-05T04:29:27.332Z,8.15
2023-05-05T04:31:29.063Z,8.52
2023-05-05T04:33:32.058Z,7.70
2023-05-05T04:35:33.636Z,11.13
2023-05-05T04:37:35.185Z,9.25
2023-05-05T04:39:36.711Z,8.55
2023-05-05T04:41:38.189Z,8.68
2023-05-05T04:43:39.676Z,8.85
2023-05-05T04:45:41.149Z,7.65
2023-05-05T04:47:42.689Z,10.38
2023-05-05T04:49:45.581Z,10.15
2023-05-05T04:51:47.060Z,7.82
2023-05-05T04:53:48.609Z,9.55
2023-05-05T04:55:50.250Z,8.40
2023-05-05T04:57:51.739Z,8.73
2023-05-05T04:59:53.472Z,11.93
2023-05-05T05:01:54.993Z,9.25
2023-05-05T05:03:56.558Z,13.23
2023-05-05T05:05:59.478Z,10.40
2023-05-05T05:08:00.960Z,8.77
2023-05-05T05:10:02.469Z,8.65
2023-05-05T05:12:04.660Z,11.25
2023-05-05T05:14:06.145Z,10.10
2023-05-05T05:16:08.199Z,9.27
2023-05-05T05:18:09.796Z,8.60
2023-05-05T05:20:11.775Z,11.55
2023-05-05T05:22:14.905Z,11.63
2023-05-05T05:24:16.378Z,12.55
2023-05-05T05:26:18.039Z,12.20
2023-05-05T05:28:19.530Z,9.45
2023-05-05T05:30:21.273Z,11.27
2023-05-05T05:32:22.904Z,9.50
2023-05-05T05:34:24.400Z,11.98
2023-05-05T05:36:25.883Z,8.25
2023-05-05T05:38:28.837Z,9.60
2023-05-05T05:40:30.344Z,12.02
2023-05-05T05:42:31.835Z,9.38
2023-05-05T05:44:33.396Z,12.30
2023-05-05T05:46:34.978Z,11.93
2023-05-05T05:48:36.494Z,13.02
2023-05-05T05:50:37.964Z,12.10
2023-05-05T05:52:39.536Z,9.32
2023-05-05T05:54:42.420Z,9.70
2023-05-05T05:56:43.961Z,19.52
2023-05-05T05:58:45.467Z,10.30
2023-05-05T06:00:48.005Z,9.43
2023-05-05T06:02:49.622Z,12.15
2023-05-05T06:04:51.207Z,16.17
2023-05-05T06:06:52.740Z,19.63
2023-05-05T06:08:54.240Z,14.48
2023-05-05T06:10:57.118Z,12.50
2023-05-05T06:12:58.677Z,13.85
2023-05-05T06:15:00.200Z,12.75
2023-05-05T06:17:01.746Z,8.48
2023-05-05T06:19:03.347Z,8.13
2023-05-05T06:21:05.208Z,8.90
2023-05-05T06:23:10.099Z,7.72
2023-05-05T06:25:14.655Z,6.35
2023-05-05T06:27:17.486Z,5.50
2023-05-05T06:29:19.012Z,4.72
2023-05-05T06:31:20.540Z,5.47
2023-05-05T06:33:22.039Z,4.63
2023-05-05T06:35:23.545Z,6.45
2023-05-05T06:37:25.026Z,8.60
2023-05-05T06:39:26.536Z,5.28
2023-05-05T06:41:28.036Z,4.38
2023-05-05T06:43:30.945Z,5.95
2023-05-05T06:45:32.466Z,5.35
2023-05-05T06:47:34.114Z,6.53
2023-05-05T06:49:35.598Z,7.47
2023-05-05T06:51:37.075Z,7.22
2023-05-05T06:53:38.555Z,5.40
2023-05-05T06:55:45.493Z,7.88
2023-05-05T06:57:47.006Z,6.43
2023-05-05T06:59:49.845Z,15.50
2023-05-05T07:01:51.372Z,7.85
2023-05-05T07:03:52.896Z,5.90
2023-05-05T07:05:54.432Z,5.03
2023-05-05T07:07:56.965Z,6.03
2023-05-05T07:09:58.513Z,11.15
2023-05-05T07:12:02.989Z,10.02
2023-05-05T07:14:04.492Z,6.90
2023-05-05T07:16:07.795Z,7.68
2023-05-05T07:18:12.170Z,9.57
2023-05-05T07:20:15.742Z,7.75
2023-05-05T07:24:18.507Z,6.00
2023-05-05T07:26:20.009Z,6.20
2023-05-05T07:28:21.462Z,5.35
2023-05-05T07:30:23.283Z,5.95
2023-05-05T07:32:26.379Z,6.22
2023-05-05T07:34:27.912Z,6.70
2023-05-05T07:36:29.533Z,6.57
2023-05-05T07:38:31.003Z,6.03
2023-05-05T07:40:32.481Z,6.28
2023-05-05T07:42:34.016Z,6.30
2023-05-05T07:44:35.507Z,7.05
2023-05-05T07:46:37.148Z,8.02
2023-05-05T07:48:40.136Z,6.07
2023-05-05T07:50:41.598Z,7.35
2023-05-05T07:52:48.268Z,7.53
2023-05-05T07:54:55.337Z,6.10
2023-05-05T07:56:56.819Z,6.22
2023-05-05T07:58:58.316Z,5.30
2023-05-05T08:00:59.936Z,6.70
2023-05-05T08:03:01.582Z,5.05
2023-05-05T08:05:05.278Z,6.30
2023-05-05T08:07:07.521Z,6.15
2023-05-05T08:09:09.012Z,5.10
2023-05-05T08:11:10.494Z,9.07
2023-05-05T08:13:12.154Z,7.32
2023-05-05T08:15:13.720Z,11.32
2023-05-05T08:17:15.227Z,6.38
2023-05-05T08:19:28.259Z,8.52
2023-05-05T08:21:32.278Z,5.28
2023-05-05T08:23:34.818Z,5.03
2023-05-05T08:25:36.360Z,7.13
2023-05-05T08:27:38.573Z,6.50
2023-05-05T08:29:40.031Z,5.65
2023-05-05T08:31:41.530Z,9.60
2023-05-05T08:33:43.057Z,5.47
2023-05-05T08:35:44.837Z,6.90
2023-05-05T08:37:47.682Z,6.32
2023-05-05T08:39:49.360Z,9.40
2023-05-05T08:41:50.885Z,5.53
2023-05-05T08:43:52.515Z,5.80
2023-05-05T08:45:55.830Z,4.90
2023-05-05T08:47:58.222Z,6.68
2023-05-05T08:50:00.269Z,4.57
2023-05-05T08:52:04.936Z,5.40
2023-05-05T08:54:14.403Z,5.78
2023-05-05T08:56:16.457Z,4.38
2023-05-05T08:58:18.641Z,4.72
2023-05-05T09:00:20.769Z,5.82
2023-05-05T09:02:24.072Z,5.15
2023-05-05T09:04:25.666Z,4.95
2023-05-05T09:06:27.293Z,6.47
2023-05-05T09:08:29.488Z,5.60
2023-05-05T09:10:33.044Z,5.85
2023-05-05T09:14:36.634Z,7.55
2023-05-05T09:16:41.030Z,7.82
2023-05-05T09:18:42.695Z,6.03
2023-05-05T09:20:44.206Z,6.57
2023-05-05T09:22:47.398Z,5.32
2023-05-05T09:24:54.829Z,7.22
2023-05-05T09:26:59.134Z,8.50
2023-05-05T09:29:01.385Z,6.53
2023-05-05T09:31:12.945Z,5.75
2023-05-05T09:33:14.494Z,6.05
2023-05-05T09:35:16.664Z,8.27
2023-05-05T09:37:27.205Z,4.82
2023-05-05T09:39:28.711Z,5.70
2023-05-05T09:41:37.389Z,6.53
2023-05-05T09:43:51.436Z,8.15
2023-05-05T09:46:05.717Z,5.75
2023-05-05T09:48:07.444Z,5.38
2023-05-05T09:50:09.685Z,6.65
2023-05-05T09:52:15.559Z,5.45
2023-05-05T09:54:24.350Z,5.00
2023-05-05T09:56:37.328Z,4.90
2023-05-05T09:58:38.845Z,6.78
2023-05-05T10:00:41.700Z,4.43
2023-05-05T10:02:43.310Z,5.40
2023-05-05T10:04:44.831Z,5.28
2023-05-05T10:06:46.608Z,7.45
2023-05-05T10:09:00.925Z,5.50
2023-05-05T10:11:04.115Z,5.50
2023-05-05T10:13:05.763Z,8.75
2023-05-05T10:15:08.829Z,15.38
2023-05-05T10:17:12.774Z,5.68
2023-05-05T10:19:15.849Z,11.88
2023-05-05T10:21:20.506Z,11.27
2023-05-05T10:23:24.145Z,7.60
2023-05-05T10:25:29.700Z,6.15
2023-05-05T10:27:38.838Z,5.22
2023-05-05T10:29:48.389Z,4.68
2023-05-05T10:31:52.855Z,6.20
2023-05-05T10:34:03.346Z,5.18
2023-05-05T10:36:05.588Z,7.63
2023-05-05T10:38:08.382Z,5.82
2023-05-05T10:40:10.516Z,8.25
2023-05-05T10:42:14.896Z,9.13
2023-05-05T10:44:16.721Z,6.53
2023-05-05T10:46:19.933Z,5.68
2023-05-05T10:48:29.764Z,6.72
2023-05-05T10:50:35.825Z,4.43
2023-05-05T10:52:45.556Z,4.68
2023-05-05T10:54:54.260Z,4.57
2023-05-05T10:56:57.466Z,7.68
2023-05-05T10:59:00.471Z,4.70
2023-05-05T11:01:02.631Z,4.03
2023-05-05T11:03:20.810Z,6.10
2023-05-05T11:05:22.580Z,8.05
2023-05-05T11:07:25.527Z,5.50
2023-05-05T11:09:27.567Z,5.20
2023-05-05T11:12:04.861Z,7.20
2023-05-05T11:14:21.361Z,4.72
2023-05-05T11:16:45.101Z,4.30
2023-05-05T11:18:46.658Z,5.53
2023-05-05T11:21:13.326Z,6.63
2023-05-05T11:23:25.734Z,6.63
2023-05-05T11:25:48.793Z,7.13
2023-05-05T11:28:05.894Z,4.97
2023-05-05T11:30:09.167Z,5.13
2023-05-05T11:36:39.827Z,6.07
2023-05-05T11:39:07.427Z,4.68
2023-05-05T11:41:13.297Z,6.13
2023-05-05T11:43:18.703Z,6.60
2023-05-05T11:45:21.963Z,5.10
2023-05-05T11:47:31.344Z,6.25
2023-05-05T11:49:34.430Z,5.97
2023-05-05T11:51:36.573Z,6.75
2023-05-05T11:53:42.058Z,4.68
2023-05-05T11:55:44.922Z,6.13
2023-05-05T11:57:46.416Z,6.38
2023-05-05T11:59:54.375Z,6.35
2023-05-05T12:01:55.885Z,6.20
2023-05-05T12:03:57.612Z,6.72
2023-05-05T12:05:59.307Z,7.25
2023-05-05T12:08:01.400Z,5.05
2023-05-05T12:10:02.987Z,5.82
2023-05-05T12:12:06.631Z,6.30
2023-05-05T12:14:09.054Z,4.50
2023-05-05T12:16:11.112Z,5.38
2023-05-05T12:18:18.372Z,4.75
2023-05-05T12:20:29.508Z,5.22
2023-05-05T12:22:31.076Z,5.05
2023-05-05T12:24:32.640Z,4.88
2023-05-05T12:26:34.125Z,4.43
2023-05-05T12:28:47.524Z,4.63
2023-05-05T12:30:56.155Z,6.43
2023-05-05T12:33:02.109Z,4.03
2023-05-05T12:35:04.277Z,5.07
2023-05-05T12:37:05.959Z,6.28
2023-05-05T12:39:07.611Z,3.92
2023-05-05T12:41:09.218Z,5.40
2023-05-05T12:43:22.469Z,4.43
2023-05-05T12:45:25.493Z,5.80
2023-05-05T12:47:31.128Z,5.03
2023-05-05T12:49:45.443Z,4.25
2023-05-05T12:51:54.467Z,4.07
2023-05-05T12:54:03.022Z,8.23
2023-05-05T12:56:04.824Z,4.07
2023-05-05T12:58:06.392Z,5.68
2023-05-05T13:00:34.418Z,6.53
2023-05-05T13:02:36.084Z,5.55
2023-05-05T13:04:48.165Z,4.28
2023-05-05T13:07:07.161Z,4.47
2023-05-05T13:09:08.952Z,4.78
2023-05-05T13:11:10.498Z,4.65
2023-05-05T13:13:11.989Z,6.90
2023-05-05T13:15:13.772Z,3.97
2023-05-05T13:17:17.037Z,5.20
2023-05-05T13:19:19.033Z,4.05
2023-05-05T13:21:20.572Z,5.00
2023-05-05T13:23:23.376Z,3.72
2023-05-05T13:25:26.145Z,4.38
2023-05-05T13:27:27.700Z,4.60
2023-05-05T13:29:31.540Z,3.58
2023-05-05T13:31:33.505Z,4.65
2023-05-05T13:33:36.391Z,4.55
2023-05-05T13:35:37.915Z,4.22
2023-05-05T13:37:39.988Z,3.15
2023-05-05T13:39:41.552Z,5.60
2023-05-05T13:41:43.037Z,3.30
2023-05-05T13:43:44.575Z,3.85
2023-05-05T13:45:46.068Z,4.35
2023-05-05T13:47:47.529Z,6.10
2023-05-05T13:49:50.463Z,5.20
2023-05-05T13:51:51.930Z,4.85
2023-05-05T13:53:53.405Z,3.30
2023-05-05T13:55:55.072Z,4.05
2023-05-05T13:57:56.616Z,4.07
2023-05-05T13:59:58.097Z,4.75
2023-05-05T14:01:59.559Z,4.18
2023-05-05T14:04:03.640Z,4.03
2023-05-05T14:06:08.525Z,3.78
2023-05-05T14:08:10.000Z,5.15
2023-05-05T14:10:11.551Z,4.15
2023-05-05T14:12:13.016Z,3.78
2023-05-05T14:14:14.492Z,3.08
2023-05-05T14:16:16.086Z,4.40
2023-05-05T14:18:17.643Z,8.85
2023-05-05T14:20:19.110Z,4.55
2023-05-05T14:22:21.967Z,6.05
2023-05-05T14:24:23.586Z,5.07
2023-05-05T14:26:25.081Z,3.45
2023-05-05T14:28:26.730Z,4.68
2023-05-05T14:30:28.276Z,4.15
2023-05-05T14:32:29.761Z,4.25
2023-05-05T14:34:31.362Z,4.85
2023-05-05T14:36:33.993Z,4.32
2023-05-05T14:38:36.903Z,4.30
2023-05-05T14:40:38.397Z,3.60
2023-05-05T14:42:39.897Z,3.42
2023-05-05T14:44:41.395Z,4.63
2023-05-05T14:46:44.666Z,6.03
2023-05-05T14:48:47.378Z,4.68
2023-05-05T14:50:48.929Z,3.63
2023-05-05T14:52:50.429Z,6.43
2023-05-05T14:54:53.243Z,4.32
2023-05-05T14:56:55.031Z,6.05
2023-05-05T14:58:56.569Z,4.35
2023-05-05T15:00:58.616Z,6.80
2023-05-05T15:03:00.155Z,4.47
2023-05-05T15:05:17.379Z,5.03
2023-05-05T15:07:18.965Z,6.03
2023-05-05T15:09:40.971Z,6.07
2023-05-05T15:11:43.887Z,4.10
2023-05-05T15:13:45.425Z,3.97
2023-05-05T15:15:46.946Z,5.80
2023-05-05T15:17:48.480Z,4.25
2023-05-05T15:19:50.036Z,4.78
2023-05-05T15:21:51.560Z,6.00
2023-05-05T15:23:53.043Z,5.45
2023-05-05T15:25:54.584Z,5.35
2023-05-05T15:27:57.458Z,4.93
2023-05-05T15:29:58.941Z,5.88
2023-05-05T15:32:00.565Z,6.07
2023-05-05T15:34:02.198Z,4.70
2023-05-05T15:36:03.960Z,7.00
2023-05-05T15:38:06.487Z,5.82
2023-05-05T15:40:09.182Z,5.65
2023-05-05T15:42:10.700Z,6.07
2023-05-05T15:44:13.549Z,7.18
2023-05-05T15:46:15.050Z,5.65
2023-05-05T15:48:16.531Z,8.93
2023-05-05T15:50:18.328Z,7.63
2023-05-05T15:52:19.826Z,9.45
2023-05-05T15:54:21.406Z,10.02
2023-05-05T15:56:22.893Z,11.73
2023-05-05T15:58:24.459Z,8.63
2023-05-05T16:00:27.575Z,10.98
2023-05-05T16:02:29.162Z,10.52
2023-05-05T16:04:30.845Z,11.77
2023-05-05T16:06:32.347Z,10.98
2023-05-05T16:08:33.834Z,8.73
2023-05-05T16:10:35.501Z,10.73
2023-05-05T16:12:37.038Z,6.85
2023-05-05T16:14:38.506Z,9.93
2023-05-05T16:16:41.465Z,9.77
2023-05-05T16:18:43.088Z,9.57
2023-05-05T16:20:44.565Z,10.57
2023-05-05T16:22:46.069Z,5.80
2023-05-05T16:24:47.574Z,8.80
2023-05-05T16:26:49.041Z,9.77
2023-05-05T16:28:50.546Z,11.32
2023-05-05T16:30:55.718Z,8.82
2023-05-05T16:32:58.589Z,10.88
2023-05-05T16:35:00.107Z,10.38
2023-05-05T16:37:01.602Z,9.25
2023-05-05T16:39:03.177Z,14.63
2023-05-05T16:41:04.882Z,10.13
2023-05-05T16:43:06.410Z,10.38
2023-05-05T16:45:09.128Z,15.48
2023-05-05T16:47:10.818Z,9.60
2023-05-05T16:49:13.635Z,16.75
2023-05-05T16:51:15.130Z,9.18
2023-05-05T16:53:16.611Z,7.32
2023-05-05T16:55:18.301Z,7.82
2023-05-05T16:57:19.788Z,9.55
2023-05-05T16:59:21.273Z,7.70
2023-05-05T17:01:22.874Z,8.68
2023-05-05T17:03:24.352Z,6.25
2023-05-05T17:05:27.308Z,8.63
2023-05-05T17:07:28.856Z,8.20
2023-05-05T17:09:30.333Z,7.97
2023-05-05T17:11:31.877Z,7.25
2023-05-05T17:13:33.349Z,5.85
2023-05-05T17:15:34.878Z,5.53
2023-05-05T17:17:36.463Z,4.15
2023-05-05T17:19:37.992Z,5.40
2023-05-05T17:21:40.879Z,5.47
2023-05-05T17:23:42.342Z,9.75
2023-05-05T17:25:43.855Z,6.03
2023-05-05T17:27:45.648Z,4.28
2023-05-05T17:29:47.211Z,4.20
2023-05-05T17:31:48.819Z,6.65
2023-05-05T17:33:50.295Z,6.43
2023-05-05T17:35:51.783Z,5.30
2023-05-05T17:37:54.620Z,6.20
2023-05-05T17:39:56.184Z,6.63
2023-05-05T17:41:57.664Z,5.25
2023-05-05T17:43:59.185Z,5.07
2023-05-05T17:46:00.723Z,5.32
2023-05-05T17:48:02.238Z,8.88
2023-05-05T17:50:04.480Z,5.82
2023-05-05T17:52:05.961Z,5.20
2023-05-05T17:54:08.836Z,6.50
2023-05-05T17:56:10.316Z,6.95
2023-05-05T17:58:12.103Z,5.15
2023-05-05T18:00:14.328Z,5.82
2023-05-05T18:02:15.967Z,4.18
2023-05-05T18:04:17.471Z,5.63
2023-05-05T18:06:19.030Z,7.28
2023-05-05T18:08:20.539Z,5.10
2023-05-05T18:10:23.404Z,7.75
2023-05-05T18:12:24.962Z,4.45
2023-05-05T18:14:26.728Z,5.90
2023-05-05T18:16:28.259Z,5.28
2023-05-05T18:18:31.684Z,6.15
2023-05-05T18:20:33.207Z,13.30
2023-05-05T18:22:34.715Z,52.60
2023-05-05T18:24:36.240Z,28.75
2023-05-05T18:26:39.716Z,19.15
2023-05-05T18:28:41.223Z,23.58
2023-05-05T18:30:42.760Z,30.27
2023-05-05T18:32:44.235Z,37.80
2023-05-05T18:34:45.836Z,9.63
2023-05-05T18:36:51.272Z,8.40
2023-05-05T18:38:53.561Z,7.05
2023-05-05T18:40:55.705Z,14.55
2023-05-05T18:42:58.598Z,30.45
2023-05-05T18:45:00.137Z,23.58
2023-05-05T18:47:01.914Z,20.65
2023-05-05T18:49:03.568Z,6.43
2023-05-05T18:51:05.332Z,7.22
2023-05-05T18:53:06.829Z,7.25
2023-05-05T18:55:08.805Z,5.97
2023-05-05T18:57:10.397Z,7.32
2023-05-05T18:59:13.389Z,6.90
2023-05-05T19:01:14.917Z,6.22
2023-05-05T19:03:16.453Z,6.60
2023-05-05T19:05:18.118Z,8.15
2023-05-05T19:07:31.607Z,7.85
2023-05-05T19:09:36.496Z,5.35
2023-05-05T19:11:38.338Z,6.35
2023-05-05T19:13:40.187Z,7.70
2023-05-05T19:15:43.169Z,7.25
2023-05-05T19:17:44.660Z,6.38
2023-05-05T19:19:46.120Z,5.75
2023-05-05T19:21:47.944Z,4.40
2023-05-05T19:23:49.466Z,4.95
2023-05-05T19:25:51.076Z,8.05
2023-05-05T19:27:52.589Z,5.93
2023-05-05T19:29:54.068Z,5.13
2023-05-05T19:31:57.924Z,7.05
2023-05-05T19:34:01.572Z,8.38
2023-05-05T19:36:03.348Z,6.43
2023-05-05T19:38:04.839Z,6.18
2023-05-05T19:40:07.581Z,5.28
2023-05-05T19:42:09.126Z,6.88
2023-05-05T19:44:10.629Z,6.45
2023-05-05T19:46:12.275Z,8.90
2023-05-05T19:48:15.118Z,6.18
2023-05-05T19:50:16.589Z,6.25
2023-05-05T19:52:18.113Z,6.75
2023-05-05T19:54:19.629Z,5.30
2023-05-05T19:56:21.106Z,5.03
2023-05-05T19:58:23.130Z,5.80
2023-05-05T20:00:24.633Z,6.10
2023-05-05T20:02:26.163Z,6.18
2023-05-05T20:04:29.024Z,7.22
2023-05-05T20:06:30.986Z,6.22
2023-05-05T20:08:32.430Z,5.00
2023-05-05T20:10:35.039Z,6.05
2023-05-05T20:12:36.683Z,6.68
2023-05-05T20:14:38.210Z,5.15
2023-05-05T20:16:39.705Z,4.93
2023-05-05T20:18:41.203Z,6.25
2023-05-05T20:20:44.071Z,7.05
2023-05-05T20:22:46.375Z,7.15
2023-05-05T20:24:47.839Z,7.60
2023-05-05T20:26:49.387Z,7.18
2023-05-05T20:28:50.862Z,7.63
2023-05-05T20:30:52.325Z,6.70
2023-05-05T20:32:53.914Z,5.38
2023-05-05T20:34:55.416Z,8.48
2023-05-05T20:36:58.349Z,5.65
2023-05-05T20:39:00.002Z,6.15
2023-05-05T20:41:01.570Z,8.75
2023-05-05T20:43:03.118Z,7.22
2023-05-05T20:45:05.701Z,6.57
2023-05-05T20:47:07.405Z,9.63
2023-05-05T20:49:08.981Z,6.28
2023-05-05T20:51:10.520Z,8.75
2023-05-05T20:53:13.350Z,8.02
2023-05-05T20:55:15.424Z,8.07
2023-05-05T20:57:16.950Z,8.10
2023-05-05T20:59:18.464Z,7.47
2023-05-05T21:01:20.196Z,7.20
2023-05-05T21:03:21.782Z,6.13
2023-05-05T21:05:23.481Z,6.72
2023-05-05T21:07:24.928Z,6.10
2023-05-05T21:09:27.742Z,8.27
2023-05-05T21:11:29.216Z,7.47
2023-05-05T21:13:30.657Z,6.82
2023-05-05T21:15:32.157Z,8.82
2023-05-05T21:17:33.975Z,8.02
2023-05-05T21:19:35.484Z,8.73
2023-05-05T21:21:36.982Z,5.80
2023-05-05T21:23:38.459Z,7.80
2023-05-05T21:25:41.370Z,6.57
2023-05-05T21:27:43.379Z,7.22
2023-05-05T21:29:44.898Z,8.13
2023-05-05T21:31:46.394Z,8.05
2023-05-05T21:33:47.972Z,5.00
2023-05-05T21:35:49.434Z,6.25
2023-05-05T21:37:50.916Z,6.45
2023-05-05T21:39:52.422Z,7.78
2023-05-05T21:41:55.239Z,5.38
2023-05-05T21:43:57.864Z,8.80
2023-05-05T21:45:59.555Z,9.75
2023-05-05T21:48:01.098Z,5.68
2023-05-05T21:50:02.991Z,7.93
2023-05-05T21:52:04.520Z,6.97
2023-05-05T21:54:06.159Z,6.45
2023-05-05T21:56:07.737Z,7.47
2023-05-05T21:58:10.606Z,8.00
2023-05-05T22:00:13.179Z,7.00
2023-05-05T22:02:17.764Z,6.35
2023-05-05T22:04:19.286Z,7.93
2023-05-05T22:06:21.246Z,6.95
2023-05-05T22:08:22.702Z,7.03
2023-05-05T22:10:24.211Z,7.25
2023-05-05T22:12:25.749Z,5.75
2023-05-05T22:14:28.761Z,7.07
2023-05-05T22:16:30.348Z,4.70
2023-05-05T22:18:31.839Z,4.80
2023-05-05T22:20:33.387Z,5.05
2023-05-05T22:22:34.974Z,5.03
2023-05-05T22:24:36.439Z,5.55
2023-05-05T22:26:37.894Z,4.75
2023-05-05T22:28:39.430Z,4.88
2023-05-05T22:30:42.314Z,9.10
2023-05-05T22:32:43.848Z,5.55
2023-05-05T22:34:45.352Z,5.90
2023-05-05T22:36:46.922Z,5.18
2023-05-05T22:38:48.418Z,6.00
2023-05-05T22:40:49.957Z,5.93
2023-05-05T22:42:51.420Z,5.60
2023-05-05T22:44:52.913Z,4.47
2023-05-05T22:46:55.966Z,5.18
2023-05-05T22:48:57.570Z,5.38
2023-05-05T22:50:59.060Z,4.97
2023-05-05T22:53:00.590Z,6.95
2023-05-05T22:55:02.292Z,6.35
2023-05-05T22:57:03.914Z,5.75
2023-05-05T22:59:05.387Z,4.75
2023-05-05T23:01:06.969Z,5.88
2023-05-05T23:03:10.109Z,5.70
2023-05-05T23:05:11.875Z,5.05
2023-05-05T23:07:13.677Z,5.07
2023-05-05T23:09:16.831Z,5.55
2023-05-05T23:11:18.403Z,4.80
2023-05-05T23:13:19.978Z,5.45
2023-05-05T23:15:21.517Z,5.88
2023-05-05T23:17:23.045Z,4.75
2023-05-05T23:19:25.948Z,6.05
2023-05-05T23:21:27.763Z,4.82
2023-05-05T23:23:29.896Z,5.35
2023-05-05T23:25:31.383Z,4.93
2023-05-05T23:27:32.872Z,5.10
2023-05-05T23:29:34.428Z,5.68
2023-05-05T23:31:35.913Z,5.13
2023-05-05T23:33:37.379Z,5.43
2023-05-05T23:35:40.176Z,6.95
2023-05-05T23:37:41.694Z,4.00
2023-05-05T23:39:43.181Z,6.47
2023-05-05T23:41:44.695Z,3.83
2023-05-05T23:43:46.182Z,4.55
2023-05-05T23:45:47.685Z,5.35
2023-05-05T23:47:49.217Z,3.60
2023-05-05T23:49:50.762Z,4.90
2023-05-05T23:51:53.634Z,5.72
2023-05-05T23:53:56.568Z,3.75
2023-05-05T23:55:58.077Z,5.28
2023-05-05T23:57:59.984Z,4.68
